Time;durP1;ratioP1;P1;durP2;ratioP2;P2;SDS_P1;SDS_P2;PMS_P1;PMS_P2;Temp;Humidity;BMP_temperature;BMP_pressure;BME280_temperature;BME280_humidity;BME280_pressure;Samples;Min_cycle;Max_cycle;Signal;HPM_P1;HPM_P2
2022/02/07 00:00:46;;;;;;;4.47;1.45;;;7.50;99.90;;;;;;5036420;28;20064;-72
2022/02/07 00:05:55;;;;;;;2.08;1.10;;;7.40;99.90;;;;;;5036703;28;20052;-72
2022/02/07 00:08:20;;;;;;;2.10;0.90;;;7.50;99.90;;;;;;5036379;28;20049;-72
2022/02/07 00:10:46;;;;;;;1.40;0.90;;;7.50;99.90;;;;;;5036761;28;20060;-72
2022/02/07 00:13:12;;;;;;;3.47;1.17;;;7.50;99.90;;;;;;5036392;28;20045;-72
2022/02/07 00:15:38;;;;;;;3.55;1.15;;;7.60;99.90;;;;;;5036343;28;20041;-72
2022/02/07 00:18:06;;;;;;;2.88;1.23;;;7.50;99.90;;;;;;5035916;28;20053;-72
2022/02/07 00:20:33;;;;;;;4.80;1.33;;;7.60;99.90;;;;;;5036255;28;20059;-72
2022/02/07 00:22:59;;;;;;;6.10;1.63;;;7.50;99.90;;;;;;5036151;28;20038;-72
2022/02/07 00:25:25;;;;;;;4.68;1.52;;;7.50;99.90;;;;;;5036122;28;20499;-72
2022/02/07 00:27:51;;;;;;;3.35;1.48;;;7.40;99.90;;;;;;5036158;28;20500;-72
2022/02/07 00:30:19;;;;;;;2.72;1.17;;;7.50;99.90;;;;;;5036396;28;20511;-72
2022/02/07 00:32:46;;;;;;;6.32;1.52;;;7.40;99.90;;;;;;5036055;28;20053;-72
2022/02/07 00:35:17;;;;;;;4.15;1.50;;;7.40;99.90;;;;;;5037666;28;20037;-72
2022/02/07 00:37:45;;;;;;;;;;;7.60;99.90;;;;;;5054631;28;20530;-72
2022/02/07 00:48:08;;;;;;;5.13;1.17;;;7.50;99.90;;;;;;5055272;28;20057;-72
2022/02/07 00:50:35;;;;;;;2.38;0.90;;;7.60;99.90;;;;;;5054987;28;20041;-72
2022/02/07 00:53:02;;;;;;;5.32;1.83;;;7.70;99.90;;;;;;5055568;28;20044;-72
2022/02/07 00:55:28;;;;;;;5.30;1.55;;;7.60;99.90;;;;;;5055506;28;20032;-72
2022/02/07 00:57:54;;;;;;;2.97;1.65;;;7.50;99.90;;;;;;5055493;28;20040;-72
2022/02/07 01:00:20;;;;;;;4.10;1.25;;;7.50;99.90;;;;;;5056057;28;20507;-72
2022/02/07 01:02:46;;;;;;;3.92;1.65;;;7.60;99.90;;;;;;5055338;28;20055;-72
2022/02/07 01:05:14;;;;;;;4.35;1.48;;;7.40;99.90;;;;;;5055215;28;20111;-72
2022/02/07 01:07:45;;;;;;;2.42;1.27;;;7.40;99.90;;;;;;5054917;28;20511;-72
2022/02/07 01:10:12;;;;;;;4.00;1.77;;;7.30;99.90;;;;;;5055684;28;20048;-72
2022/02/07 01:55:05;;;;;;;3.13;1.17;;;6.90;99.90;;;;;;5054374;28;20091;-72
2022/02/07 01:57:32;;;;;;;3.30;1.15;;;6.80;99.90;;;;;;5054025;28;20055;-72
2022/02/07 01:59:57;;;;;;;2.97;0.98;;;6.90;99.90;;;;;;5054942;28;20048;-73
2022/02/07 02:02:23;;;;;;;5.03;1.60;;;6.90;99.90;;;;;;5054288;28;20041;-72
2022/02/07 02:04:49;;;;;;;6.28;1.45;;;6.80;99.90;;;;;;5054107;28;20037;-72
2022/02/07 02:07:16;;;;;;;4.65;1.40;;;6.90;99.90;;;;;;5053902;28;20041;-73
2022/02/07 02:09:42;;;;;;;2.88;1.10;;;6.80;99.90;;;;;;5054416;28;20033;-73
2022/02/07 02:12:09;;;;;;;2.85;0.82;;;6.90;99.90;;;;;;5053836;28;20407;-73
2022/02/07 02:46:46;;;;;;;1.80;1.10;;;;;;;;;;5057475;28;20059;-73
2022/02/07 02:49:13;;;;;;;1.23;0.90;;;;;;;;;;5057705;28;20092;-73
2022/02/07 02:51:38;;;;;;;2.58;0.90;;;6.70;99.90;;;;;;5057877;28;20533;-73
2022/02/07 02:54:07;;;;;;;2.83;1.08;;;6.90;99.90;;;;;;5057524;28;20045;-73
2022/02/07 02:56:34;;;;;;;2.53;1.35;;;6.80;99.90;;;;;;5057751;28;20050;-73
2022/02/07 02:59:00;;;;;;;1.33;1.00;;;6.80;99.90;;;;;;5057766;28;20052;-73
2022/02/07 03:01:26;;;;;;;2.13;1.10;;;6.90;99.90;;;;;;5057736;28;20033;-73
2022/02/07 03:03:52;;;;;;;2.60;0.88;;;6.80;99.90;;;;;;5057225;28;20041;-73
2022/02/07 03:06:18;;;;;;;2.05;0.95;;;6.90;99.90;;;;;;5057302;28;20379;-73
2022/02/07 03:08:43;;;;;;;2.42;1.02;;;6.80;99.90;;;;;;5057481;28;20041;-73
2022/02/07 03:11:11;;;;;;;1.83;1.02;;;6.80;99.90;;;;;;5057593;28;20048;-73
2022/02/07 03:13:58;;;;;;;1.30;0.70;;;6.70;99.90;;;;;;5057369;28;20149;-73
2022/02/07 03:16:37;;;;;;;2.40;0.90;;;6.70;99.90;;;;;;5057486;28;20044;-73
2022/02/07 03:19:12;;;;;;;0.63;0.60;;;6.70;99.90;;;;;;5057583;28;20083;-73
2022/02/07 03:21:40;;;;;;;1.63;0.90;;;6.70;99.90;;;;;;5057915;28;20037;-73
2022/02/07 03:24:07;;;;;;;5.45;1.17;;;6.60;99.90;;;;;;5057016;28;20049;-73
2022/02/07 03:26:42;;;;;;;1.73;1.00;;;6.70;99.90;;;;;;5056822;28;20383;-73
2022/02/07 03:29:10;;;;;;;1.15;0.70;;;6.60;99.90;;;;;;5057823;28;20149;-73
2022/02/07 03:31:36;;;;;;;1.70;0.70;;;6.70;99.90;;;;;;5056831;28;20120;-73
2022/02/07 03:34:03;;;;;;;2.17;0.80;;;6.70;99.90;;;;;;5057314;28;20114;-73
2022/02/07 03:36:31;;;;;;;0.60;0.50;;;6.70;99.90;;;;;;5056589;28;20487;-73
2022/02/07 03:38:57;;;;;;;1.27;0.65;;;6.70;99.90;;;;;;5055339;28;20051;-72
2022/02/07 03:41:23;;;;;;;0.68;0.52;;;6.60;99.90;;;;;;5056824;28;20037;-73
2022/02/07 03:43:50;;;;;;;2.40;0.63;;;6.60;99.90;;;;;;5056593;28;20091;-73
2022/02/07 03:46:15;;;;;;;1.60;0.70;;;6.70;99.90;;;;;;5056590;28;20068;-73
2022/02/07 03:48:41;;;;;;;2.90;0.60;;;6.60;99.90;;;;;;5056307;28;20076;-73
2022/02/07 03:51:08;;;;;;;1.27;0.70;;;6.70;99.90;;;;;;5056817;28;20041;-73
2022/02/07 03:53:33;;;;;;;2.38;0.68;;;6.60;99.90;;;;;;5056181;28;20559;-73
2022/02/07 03:55:59;;;;;;;3.72;0.65;;;6.60;99.90;;;;;;5056122;28;20064;-73
2022/02/07 03:58:25;;;;;;;0.70;0.40;;;6.60;99.90;;;;;;5056486;28;20127;-73
2022/02/07 04:00:53;;;;;;;1.35;0.70;;;6.80;99.90;;;;;;5056347;28;20072;-73
2022/02/07 04:03:22;;;;;;;0.43;0.40;;;6.80;99.90;;;;;;5056169;28;20068;-73
2022/02/07 04:05:53;;;;;;;0.45;0.45;;;6.70;99.90;;;;;;5055777;28;20126;-73
2022/02/07 04:08:21;;;;;;;0.40;0.40;;;6.80;99.90;;;;;;5038337;28;20439;-73
2022/02/07 04:11:06;;;;;;;0.40;0.40;;;6.80;99.90;;;;;;5056203;28;20052;-73
2022/02/07 04:13:35;;;;;;;0.45;0.30;;;6.90;99.90;;;;;;5055746;28;20124;-73
2022/02/07 04:16:03;;;;;;;0.88;0.40;;;6.90;99.90;;;;;;5055964;28;20033;-73
2022/02/07 04:18:46;;;;;;;1.85;0.55;;;6.90;99.90;;;;;;5055863;28;20072;-73
2022/02/07 04:21:12;;;;;;;0.68;0.40;;;6.90;99.90;;;;;;5056560;28;20029;-73
2022/02/07 04:23:38;;;;;;;1.05;0.35;;;6.90;99.90;;;;;;5055832;28;20499;-73
2022/02/07 04:26:04;;;;;;;2.67;0.50;;;6.90;99.90;;;;;;5055564;28;20044;-73
2022/02/07 04:28:30;;;;;;;0.40;0.40;;;6.90;99.90;;;;;;5055724;28;20131;-73
2022/02/07 04:30:55;;;;;;;0.95;0.57;;;7.00;99.90;;;;;;5056099;28;20199;-73
2022/02/07 04:33:21;;;;;;;3.58;0.98;;;7.10;99.90;;;;;;5055173;28;20114;-73
2022/02/07 04:35:47;;;;;;;2.75;0.75;;;7.10;99.90;;;;;;5055122;28;20033;-73
2022/02/07 04:38:13;;;;;;;0.90;0.63;;;7.10;99.90;;;;;;5055273;28;20503;-73
2022/02/07 04:40:39;;;;;;;1.77;1.10;;;7.10;99.90;;;;;;5056147;28;20032;-73
2022/02/07 04:43:07;;;;;;;2.38;1.02;;;7.20;99.90;;;;;;5055462;28;20099;-73
2022/02/07 04:45:53;;;;;;;2.08;0.65;;;7.20;99.90;;;;;;5055439;28;20047;-73
2022/02/07 04:59:07;;;;;;;3.92;0.85;;;7.00;99.90;;;;;;5054700;28;20171;-73
2022/02/07 05:01:43;;;;;;;2.42;0.80;;;7.00;99.90;;;;;;5055461;28;20060;-73
2022/02/07 05:04:20;;;;;;;3.58;0.73;;;7.00;99.90;;;;;;5054611;28;20051;-73
2022/02/07 05:14:59;;;;;;;1.80;0.70;;;6.80;99.90;;;;;;5054427;28;20090;-72
2022/02/07 05:17:27;;;;;;;1.35;0.60;;;6.90;99.90;;;;;;5041057;28;20036;-74
2022/02/07 05:19:52;;;;;;;0.95;0.57;;;6.90;99.90;;;;;;5034927;28;20048;-74
2022/02/07 05:22:18;;;;;;;1.73;0.60;;;6.90;99.90;;;;;;5035063;28;20033;-74
2022/02/07 05:24:44;;;;;;;2.20;0.60;;;6.90;99.90;;;;;;5034806;28;20502;-74
2022/02/07 05:27:10;;;;;;;0.52;0.50;;;6.90;99.90;;;;;;5034574;28;20048;-74
2022/02/07 05:29:36;;;;;;;1.88;0.60;;;7.00;99.90;;;;;;5052329;28;20584;-74
2022/02/07 05:32:02;;;;;;;1.75;0.40;;;6.90;99.90;;;;;;5054533;28;20147;-72
2022/02/07 05:34:28;;;;;;;1.40;0.40;;;6.90;99.90;;;;;;5054956;28;20087;-73
2022/02/07 05:36:57;;;;;;;1.42;0.40;;;6.70;99.90;;;;;;5055009;28;20044;-71
2022/02/07 05:39:25;;;;;;;1.00;0.45;;;7.00;99.90;;;;;;5054561;28;20068;-72
2022/02/07 05:41:50;;;;;;;2.88;0.55;;;6.90;99.90;;;;;;5054439;28;20062;-72
2022/02/07 05:44:16;;;;;;;1.17;0.40;;;6.90;99.90;;;;;;5055304;28;20076;-72
2022/02/07 05:46:42;;;;;;;0.95;0.40;;;7.00;99.90;;;;;;5054648;28;20452;-72
2022/02/07 05:49:08;;;;;;;1.50;0.30;;;7.20;99.90;;;;;;5054224;28;20118;-72
2022/02/07 05:51:34;;;;;;;2.38;0.30;;;7.00;99.90;;;;;;5054330;28;20110;-72
2022/02/07 05:54:00;;;;;;;0.30;0.30;;;6.90;99.90;;;;;;5054965;28;20119;-72
2022/02/07 05:56:25;;;;;;;1.17;0.20;;;6.80;99.90;;;;;;5054699;28;20045;-72
2022/02/07 05:58:51;;;;;;;1.42;0.40;;;7.00;99.90;;;;;;5054648;28;20044;-72
2022/02/07 06:01:18;;;;;;;0.20;0.20;;;7.00;99.90;;;;;;5055702;28;20514;-72
2022/02/07 06:03:43;;;;;;;0.77;0.28;;;7.00;99.90;;;;;;5058663;28;20490;-72
2022/02/07 06:06:09;;;;;;;0.50;0.30;;;7.00;99.90;;;;;;5058763;28;20041;-72
2022/02/07 06:08:35;;;;;;;0.30;0.30;;;7.00;99.90;;;;;;5058701;28;20049;-72
2022/02/07 06:11:02;;;;;;;0.32;0.30;;;7.10;99.90;;;;;;5059033;28;20065;-72
2022/02/07 06:13:28;;;;;;;1.35;0.68;;;7.00;99.90;;;;;;5058305;28;20087;-72
2022/02/07 06:15:55;;;;;;;1.67;0.80;;;7.00;99.90;;;;;;5058577;28;20522;-72
2022/02/07 06:18:21;;;;;;;0.30;0.30;;;7.00;99.90;;;;;;5058443;28;20170;-72
2022/02/07 06:20:54;;;;;;;1.55;0.43;;;7.10;99.90;;;;;;5059140;28;20068;-72
2022/02/07 06:23:20;;;;;;;0.60;0.40;;;7.00;99.90;;;;;;5058085;28;20044;-72
2022/02/07 06:25:46;;;;;;;0.22;0.20;;;7.00;99.90;;;;;;5058681;28;20048;-72
2022/02/07 06:28:12;;;;;;;0.30;0.28;;;7.10;99.90;;;;;;5058203;28;20045;-72
2022/02/07 06:30:38;;;;;;;1.08;0.40;;;7.00;99.90;;;;;;5058662;28;20116;-72
2022/02/07 06:33:06;;;;;;;0.52;0.40;;;7.10;99.90;;;;;;5057728;28;20053;-71
2022/02/07 06:35:32;;;;;;;1.17;0.30;;;7.20;99.90;;;;;;5058334;28;20029;-72
2022/02/07 06:37:58;;;;;;;0.98;0.55;;;7.20;99.90;;;;;;5057938;28;20052;-72
2022/02/07 06:40:24;;;;;;;0.82;0.50;;;7.10;99.90;;;;;;5057911;28;20419;-72
2022/02/07 06:42:49;;;;;;;0.93;0.65;;;7.20;99.90;;;;;;5057721;28;20083;-72
2022/02/07 06:45:15;;;;;;;0.57;0.45;;;7.10;99.90;;;;;;5058005;28;20029;-72
2022/02/07 06:47:42;;;;;;;0.60;0.30;;;7.20;99.90;;;;;;5057604;28;20047;-72
2022/02/07 06:50:08;;;;;;;0.88;0.30;;;7.20;99.90;;;;;;5057591;28;20059;-72
2022/02/07 06:52:34;;;;;;;0.60;0.30;;;7.30;99.90;;;;;;5057766;28;20040;-72
2022/02/07 06:55:00;;;;;;;0.47;0.30;;;7.20;99.90;;;;;;5057581;28;20044;-72
2022/02/07 06:57:26;;;;;;;0.40;0.40;;;7.30;99.90;;;;;;5057527;28;20067;-72
2022/02/07 06:59:51;;;;;;;0.65;0.40;;;7.40;99.90;;;;;;5057367;28;20037;-72
2022/02/07 07:02:20;;;;;;;1.90;0.50;;;7.40;99.90;;;;;;5057415;28;20047;-72
2022/02/07 07:04:45;;;;;;;3.22;0.32;;;7.50;99.90;;;;;;5057122;28;20048;-72
2022/02/07 07:07:11;;;;;;;0.75;0.40;;;7.60;99.90;;;;;;5053077;28;20037;-71
2022/02/07 07:09:38;;;;;;;0.90;0.50;;;7.60;99.90;;;;;;5040689;28;20045;-72
2022/02/07 07:12:07;;;;;;;1.05;0.50;;;7.50;99.90;;;;;;5040523;28;20484;-71
2022/02/07 07:14:45;;;;;;;1.85;0.30;;;7.60;99.90;;;;;;5057453;28;20480;-72
2022/02/07 07:17:11;;;;;;;0.68;0.28;;;7.70;99.90;;;;;;5057503;28;20399;-72
2022/02/07 07:19:37;;;;;;;0.57;0.20;;;7.60;99.90;;;;;;5057188;28;20041;-72
2022/02/07 07:22:05;;;;;;;0.22;0.20;;;7.70;99.90;;;;;;5038770;28;20878;-72
2022/02/07 07:24:32;;;;;;;3.40;0.50;;;;;;;;;;5056494;28;20039;-72
2022/02/07 07:26:58;;;;;;;0.60;0.20;;;7.60;99.90;;;;;;5056740;28;20033;-72
2022/02/07 07:29:29;;;;;;;0.20;0.20;;;7.80;99.90;;;;;;5057152;28;20049;-72
2022/02/07 07:32:01;;;;;;;0.22;0.22;;;7.80;99.90;;;;;;5056543;28;20047;-72
2022/02/07 07:34:27;;;;;;;0.20;0.20;;;7.80;99.90;;;;;;5056649;28;20039;-72
2022/02/07 07:36:53;;;;;;;0.10;0.10;;;7.80;99.90;;;;;;5056673;28;20043;-72
2022/02/07 07:39:20;;;;;;;0.20;0.20;;;7.90;99.90;;;;;;5060263;28;20190;-72
2022/02/07 07:41:46;;;;;;;0.10;0.10;;;7.80;99.90;;;;;;5059768;28;20048;-72
2022/02/07 07:44:14;;;;;;;0.60;0.40;;;7.80;99.90;;;;;;5051350;28;20037;-72
2022/02/07 07:46:40;;;;;;;0.30;0.30;;;7.70;99.90;;;;;;5038062;28;20048;-72
2022/02/07 07:49:17;;;;;;;0.30;0.20;;;8.00;99.90;;;;;;5055643;28;20040;-71
2022/02/07 07:54:26;;;;;;;0.30;0.30;;;7.90;99.90;;;;;;5037626;28;20029;-70
2022/02/07 08:02:27;;;;;;;1.27;0.60;;;7.90;99.90;;;;;;5056423;28;20120;-71
2022/02/07 08:05:15;;;;;;;0.70;0.55;;;7.90;99.90;;;;;;5071029;28;20094;-70
2022/02/07 08:07:51;;;;;;;0.77;0.40;;;7.90;99.90;;;;;;5069719;28;20044;-70
2022/02/07 08:12:48;;;;;;;0.57;0.30;;;8.10;99.90;;;;;;5071582;28;20049;-70
2022/02/07 08:15:16;;;;;;;1.38;0.30;;;8.00;99.90;;;;;;5043737;28;20570;-71
2022/02/07 08:17:42;;;;;;;0.68;0.30;;;8.10;99.90;;;;;;5035623;28;20116;-71
2022/02/07 08:20:08;;;;;;;0.30;0.30;;;8.10;99.90;;;;;;5035275;28;20040;-71
2022/02/07 08:22:34;;;;;;;0.30;0.30;;;8.10;99.90;;;;;;5034237;28;20037;-72
2022/02/07 08:25:02;;;;;;;0.30;0.30;;;8.10;99.90;;;;;;5033693;28;20527;-72
2022/02/07 08:27:29;;;;;;;0.80;0.50;;;8.10;99.90;;;;;;5034210;28;20049;-72
2022/02/07 08:29:57;;;;;;;0.70;0.60;;;8.10;99.90;;;;;;5035804;28;20040;-71
2022/02/07 08:32:23;;;;;;;0.57;0.20;;;8.10;99.90;;;;;;5035412;28;20400;-72
2022/02/07 08:34:49;;;;;;;2.17;0.68;;;8.40;99.90;;;;;;5035754;28;20033;-71
2022/02/07 08:37:15;;;;;;;0.32;0.20;;;8.20;99.90;;;;;;5035931;28;20041;-72
2022/02/07 08:39:42;;;;;;;1.05;0.28;;;8.50;99.90;;;;;;5034328;28;20045;-71
2022/02/07 08:42:09;;;;;;;1.95;0.70;;;8.20;99.90;;;;;;5047307;28;20040;-70
2022/02/07 08:44:36;;;;;;;0.43;0.40;;;8.40;99.90;;;;;;5055464;28;20120;-70
2022/02/07 08:47:03;;;;;;;0.93;0.50;;;8.30;99.90;;;;;;5054861;28;20048;-71
2022/02/07 08:49:29;;;;;;;4.35;1.40;;;8.30;99.90;;;;;;5053271;28;20043;-73
2022/02/07 08:51:55;;;;;;;2.05;1.27;;;8.30;99.90;;;;;;5051631;28;20041;-71
2022/02/07 08:54:25;;;;;;;2.60;1.58;;;8.50;99.90;;;;;;5054486;28;20065;-70
2022/02/07 08:57:13;;;;;;;1.93;1.20;;;8.30;99.90;;;;;;5055853;28;20044;-71
2022/02/07 08:59:53;;;;;;;1.92;1.17;;;8.40;99.90;;;;;;5054612;28;20067;-71
2022/02/07 09:02:38;;;;;;;1.35;0.80;;;8.50;99.90;;;;;;5039097;28;20042;-71
2022/02/07 09:05:36;;;;;;;2.22;0.70;;;8.50;99.90;;;;;;5035262;28;20041;-71
2022/02/07 09:10:54;;;;;;;1.63;0.40;;;8.60;99.90;;;;;;5011451;28;20041;-71
2022/02/07 09:13:26;;;;;;;1.02;0.57;;;8.90;99.90;;;;;;5035245;28;20033;-71
2022/02/07 09:16:17;;;;;;;0.77;0.60;;;8.70;99.90;;;;;;5035586;28;20112;-70
2022/02/07 09:18:46;;;;;;;;;;;8.80;99.90;;;;;;5040430;28;20530;-70
2022/02/07 09:21:13;;;;;;;0.60;0.60;;;8.10;99.90;;;;;;5034643;28;19963;-70
2022/02/07 09:23:40;;;;;;;3.83;0.80;;;8.70;99.90;;;;;;5038877;28;20037;-71
2022/02/07 09:26:06;;;;;;;1.50;0.43;;;8.80;99.90;;;;;;5051111;28;20037;-70
2022/02/07 09:28:33;;;;;;;0.73;0.40;;;8.80;99.90;;;;;;5054970;28;20051;-71
2022/02/07 09:30:59;;;;;;;1.33;0.40;;;8.70;99.90;;;;;;5055337;28;20072;-70
2022/02/07 09:33:26;;;;;;;0.82;0.55;;;8.80;99.90;;;;;;5045688;28;20538;-70
2022/02/07 09:35:56;;;;;;;1.45;0.60;;;;;;;;;;5056840;28;20407;-69
2022/02/07 09:38:23;;;;;;;0.95;0.50;;;;;;;;;;5034625;28;20474;-69
2022/02/07 09:40:52;;;;;;;1.17;0.60;;;9.00;99.90;;;;;;5034971;28;20045;-69
2022/02/07 09:43:19;;;;;;;2.08;0.90;;;9.10;99.90;;;;;;5034534;28;20095;-69
2022/02/07 09:45:49;;;;;;;2.00;0.70;;;9.00;99.90;;;;;;5034475;28;20030;-69
2022/02/07 09:48:16;;;;;;;0.20;0.20;;;9.10;99.90;;;;;;5034504;28;20149;-69
2022/02/07 09:50:43;;;;;;;0.47;0.40;;;9.30;99.90;;;;;;5034230;28;20099;-69
2022/02/07 09:53:10;;;;;;;1.23;0.68;;;9.40;99.90;;;;;;5033815;28;20052;-69
2022/02/07 09:55:37;;;;;;;1.77;0.55;;;9.50;99.90;;;;;;5034001;28;20072;-69
2022/02/07 09:58:04;;;;;;;0.80;0.70;;;9.60;99.90;;;;;;5031336;28;20049;-69
2022/02/07 10:00:33;;;;;;;0.90;0.50;;;;;;;;;;5032663;28;20040;-69
2022/02/07 10:03:06;;;;;;;0.47;0.30;;;9.60;99.90;;;;;;5034336;28;20038;-69
2022/02/07 10:05:45;;;;;;;1.30;0.90;;;9.60;99.90;;;;;;5033136;28;20120;-69
2022/02/07 10:11:18;;;;;;;1.08;0.60;;;9.80;99.90;;;;;;5032595;28;20029;-69
2022/02/07 10:21:58;;;;;;;0.73;0.70;;;9.50;99.90;;;;;;5053271;28;20037;-69
2022/02/07 10:43:55;;;;;;;0.35;0.35;;;9.70;99.90;;;;;;5065879;28;20040;-69
2022/02/07 10:46:20;;;;;;;0.60;0.60;;;9.60;99.90;;;;;;5072790;28;20136;-69
2022/02/07 10:48:51;;;;;;;0.45;0.32;;;;;;;;;;5071975;28;20495;-69
2022/02/07 10:51:22;;;;;;;1.85;0.73;;;;;;;;;;5065552;28;20037;-69
2022/02/07 10:53:49;;;;;;;;;;;9.80;99.90;;;;;;5057534;28;20041;-69
2022/02/07 10:56:18;;;;;;;1.83;0.70;;;9.90;99.90;;;;;;5065266;28;19909;-69
2022/02/07 10:58:45;;;;;;;0.73;0.52;;;10.00;99.90;;;;;;5057053;28;20041;-69
2022/02/07 11:01:42;;;;;;;1.60;0.90;;;9.90;99.90;;;;;;5055156;28;20048;-69
2022/02/07 11:04:15;;;;;;;2.58;1.10;;;10.10;99.90;;;;;;5055648;28;20045;-70
2022/02/07 11:06:44;;;;;;;2.08;1.10;;;10.50;99.90;;;;;;5057028;28;20041;-70
2022/02/07 11:09:17;;;;;;;1.77;0.70;;;10.30;99.90;;;;;;5037800;28;20057;-69
2022/02/07 11:14:30;;;;;;;1.48;0.70;;;10.10;99.90;;;;;;5054413;28;20029;-69
2022/02/07 11:17:25;;;;;;;0.45;0.35;;;10.10;99.90;;;;;;5054201;28;20041;-70
2022/02/07 11:20:03;;;;;;;1.30;0.50;;;9.90;99.90;;;;;;5050008;28;20070;-70
2022/02/07 11:22:56;;;;;;;0.63;0.50;;;10.10;99.90;;;;;;5061208;28;20403;-70
2022/02/07 11:28:27;;;;;;;0.85;0.20;;;10.10;99.90;;;;;;5040924;28;20045;-70
2022/02/07 11:30:58;;;;;;;1.75;0.28;;;;;;;;;;5036704;28;20033;-69
2022/02/07 11:33:51;;;;;;;0.52;0.40;;;10.40;99.90;;;;;;5033942;28;20581;-69
2022/02/07 11:36:26;;;;;;;0.20;0.20;;;;;;;;;;5047094;28;20041;-70
2022/02/07 11:38:59;;;;;;;0.93;0.50;;;10.40;99.90;;;;;;5053790;28;20051;-69
2022/02/07 11:41:26;;;;;;;1.38;0.40;;;;;;;;;;5035896;28;20047;-70
2022/02/07 11:43:54;;;;;;;1.20;0.50;;;;;;;;;;5035420;28;20037;-70
2022/02/07 11:46:21;;;;;;;1.75;0.40;;;10.40;99.90;;;;;;5036104;28;20163;-70
2022/02/07 11:48:54;;;;;;;0.93;0.30;;;10.50;99.90;;;;;;5042525;28;20052;-70
2022/02/07 11:51:34;;;;;;;1.67;0.73;;;10.40;99.90;;;;;;5055235;28;20071;-69
2022/02/07 11:54:02;;;;;;;0.88;0.35;;;10.50;99.90;;;;;;5048358;28;20037;-70
2022/02/07 11:59:13;;;;;;;1.42;0.45;;;10.40;99.90;;;;;;5045313;28;20494;-70
2022/02/07 12:01:57;;;;;;;0.77;0.45;;;10.40;99.90;;;;;;5034337;28;20037;-70
2022/02/07 12:04:36;;;;;;;2.05;0.40;;;;;;;;;;5035343;28;20041;-70
2022/02/07 12:07:10;;;;;;;0.30;0.30;;;;;;;;;;5035462;28;20046;-70
2022/02/07 12:09:36;;;;;;;0.55;0.50;;;;;;;;;;5035063;28;20060;-69
2022/02/07 12:12:04;;;;;;;0.88;0.40;;;10.50;99.90;;;;;;5034369;28;20095;-69
2022/02/07 12:14:35;;;;;;;0.93;0.40;;;;;;;;;;5034903;28;20030;-70
2022/02/07 12:17:02;;;;;;;2.33;0.30;;;;;;;;;;5051816;28;20051;-70
2022/02/07 12:19:40;;;;;;;1.13;0.45;;;;;;;;;;5055247;28;20052;-70
2022/02/07 12:22:18;;;;;;;0.57;0.40;;;;;;;;;;5054449;28;20036;-70
2022/02/07 12:24:58;;;;;;;1.58;0.70;;;;;;;;;;5055304;28;20048;-70
2022/02/07 12:27:29;;;;;;;0.80;0.40;;;10.50;99.90;;;;;;5036909;28;20044;-70
2022/02/07 12:31:01;;;;;;;2.20;0.50;;;;;;;;;;5054477;28;20056;-70
2022/02/07 12:32:55;;;;;;;2.38;0.50;;;;;;;;;;5048630;28;20053;-70
2022/02/07 12:35:26;;;;;;;0.95;0.40;;;;;;;;;;5054553;28;20099;-71
2022/02/07 12:37:53;;;;;;;;;;;;;;;;;;5053536;28;20494;-71
2022/02/07 12:40:19;;;;;;;0.65;0.30;;;10.60;99.90;;;;;;5052625;28;19909;-71
2022/02/07 12:42:45;;;;;;;0.57;0.40;;;10.70;99.90;;;;;;5053615;28;20039;-71
2022/02/07 12:45:11;;;;;;;0.43;0.40;;;10.50;99.90;;;;;;5036573;28;20033;-71
2022/02/07 12:47:39;;;;;;;0.70;0.30;;;;;;;;;;5054048;28;20048;-71
2022/02/07 12:50:11;;;;;;;0.80;0.20;;;;;;;;;;5054520;28;20123;-71
2022/02/07 12:52:38;;;;;;;0.55;0.28;;;10.70;99.90;;;;;;5054216;28;20055;-71
2022/02/07 12:55:05;;;;;;;1.52;0.50;;;10.90;99.90;;;;;;5051655;28;20112;-71
2022/02/07 12:57:42;;;;;;;1.17;0.30;;;11.10;99.90;;;;;;5054317;28;20041;-71
2022/02/07 13:00:12;;;;;;;2.45;1.00;;;11.20;99.90;;;;;;5053468;28;20041;-71
2022/02/07 13:02:42;;;;;;;0.88;0.43;;;;;;;;;;5052841;28;20047;-70
2022/02/07 13:05:16;;;;;;;1.40;0.70;;;11.10;99.90;;;;;;5051834;28;20116;-70
2022/02/07 13:07:46;;;;;;;1.73;0.85;;;;;;;;;;5049118;28;20041;-70
2022/02/07 13:10:16;;;;;;;0.73;0.50;;;;;;;;;;5040299;28;20048;-70
2022/02/07 13:15:25;;;;;;;0.70;0.32;;;11.00;99.90;;;;;;5051244;28;20037;-70
2022/02/07 13:17:54;;;;;;;0.20;0.20;;;;;;;;;;5053254;28;20033;-70
2022/02/07 13:20:23;;;;;;;0.40;0.30;;;;;;;;;;5053930;28;20040;-70
2022/02/07 13:23:02;;;;;;;1.85;0.47;;;;;;;;;;5048915;28;20044;-70
2022/02/07 13:25:38;;;;;;;1.02;0.35;;;;;;;;;;5053447;28;20055;-70
2022/02/07 13:28:05;;;;;;;0.85;0.40;;;;;;;;;;5049797;28;20049;-70
2022/02/07 13:30:32;;;;;;;1.55;0.47;;;;;;;;;;5037482;28;20049;-70
2022/02/07 13:32:58;;;;;;;1.15;0.43;;;11.70;95.70;;;;;;5053477;28;20115;-70
2022/02/07 13:35:24;;;;;;;1.55;0.60;;;12.00;94.90;;;;;;5049147;28;20041;-70
2022/02/07 13:37:50;;;;;;;1.10;0.70;;;12.10;99.90;;;;;;5042062;28;20382;-70
2022/02/07 13:40:18;;;;;;;2.50;0.63;;;12.30;99.90;;;;;;5034432;28;20128;-70
2022/02/07 13:42:46;;;;;;;2.55;0.85;;;12.50;96.00;;;;;;5053072;28;20029;-70
2022/02/07 13:45:13;;;;;;;0.75;0.40;;;12.40;97.40;;;;;;5054055;28;20037;-70
2022/02/07 13:47:43;;;;;;;1.77;1.15;;;12.40;92.20;;;;;;5054468;28;20032;-70
2022/02/07 13:50:15;;;;;;;0.95;0.40;;;;;;;;;;5053643;28;20048;-70
2022/02/07 13:52:44;;;;;;;0.65;0.35;;;12.30;94.90;;;;;;5053569;28;20102;-70
2022/02/07 13:55:21;;;;;;;0.45;0.35;;;12.30;84.40;;;;;;5034453;28;20079;-70
2022/02/07 13:57:57;;;;;;;1.88;0.50;;;12.10;93.90;;;;;;5034565;28;20041;-70
2022/02/07 14:00:27;;;;;;;0.68;0.40;;;12.00;91.00;;;;;;5034516;28;20063;-70
2022/02/07 14:03:12;;;;;;;0.77;0.38;;;11.70;90.70;;;;;;5034431;28;20045;-70
2022/02/07 14:05:43;;;;;;;0.98;0.40;;;;;;;;;;5034189;28;20040;-70
2022/02/07 14:08:11;;;;;;;0.55;0.40;;;;;;;;;;5034554;28;20046;-70
2022/02/07 14:10:38;;;;;;;0.70;0.40;;;11.70;92.40;;;;;;5033773;28;20101;-70
2022/02/07 14:13:10;;;;;;;0.90;0.50;;;11.50;94.20;;;;;;5034231;28;20527;-70
2022/02/07 14:15:38;;;;;;;2.55;0.47;;;11.50;99.90;;;;;;5033639;28;20045;-70
2022/02/07 14:18:08;;;;;;;0.45;0.30;;;11.30;91.20;;;;;;5050884;28;20044;-70
2022/02/07 14:20:36;;;;;;;1.30;1.17;;;11.30;97.50;;;;;;5051918;28;20538;-70
2022/02/07 14:23:06;;;;;;;1.00;0.57;;;11.50;98.40;;;;;;5053775;28;20073;-70
2022/02/07 14:25:32;;;;;;;1.48;0.82;;;11.40;94.10;;;;;;5037528;28;20041;-70
2022/02/07 14:28:02;;;;;;;1.65;0.95;;;;;;;;;;5037878;28;20132;-70
2022/02/07 14:30:30;;;;;;;1.40;0.88;;;11.30;93.80;;;;;;5049632;28;20090;-70
2022/02/07 14:32:58;;;;;;;0.63;0.63;;;11.50;92.70;;;;;;5046282;28;20049;-71
2022/02/07 14:35:25;;;;;;;2.97;0.77;;;11.40;92.80;;;;;;5039883;28;20037;-70
2022/02/07 14:37:51;;;;;;;1.27;0.90;;;11.40;99.90;;;;;;5056108;28;20127;-70
2022/02/07 14:40:17;;;;;;;2.05;0.60;;;11.40;88.20;;;;;;5055303;28;20128;-70
2022/02/07 14:42:44;;;;;;;1.10;0.70;;;11.30;92.10;;;;;;5055244;28;20077;-70
2022/02/07 14:50:16;;;;;;;1.85;0.55;;;11.40;90.70;;;;;;5048109;28;20383;-70
2022/02/07 14:52:43;;;;;;;1.13;0.50;;;11.40;89.90;;;;;;5046081;28;20072;-70
2022/02/07 14:55:10;;;;;;;2.60;0.80;;;11.20;99.90;;;;;;5045920;28;20041;-70
2022/02/07 14:57:37;;;;;;;0.52;0.38;;;;;;;;;;5045041;28;20039;-70
2022/02/07 15:00:10;;;;;;;2.05;0.70;;;11.30;90.20;;;;;;5045092;28;20080;-70
2022/02/07 15:02:38;;;;;;;2.55;0.93;;;11.00;88.60;;;;;;5044708;28;20044;-70
2022/02/07 15:05:05;;;;;;;1.55;0.80;;;11.00;86.60;;;;;;5044326;28;20037;-70
2022/02/07 15:07:31;;;;;;;3.15;1.73;;;10.90;84.60;;;;;;5045704;28;20033;-70
2022/02/07 15:09:57;;;;;;;3.25;0.93;;;10.90;86.00;;;;;;5046417;28;20049;-70
2022/02/07 15:12:23;;;;;;;4.07;1.20;;;10.70;83.20;;;;;;5046668;28;20041;-69
2022/02/07 15:14:50;;;;;;;2.25;0.85;;;10.80;89.10;;;;;;5045763;28;20045;-70
2022/02/07 15:17:18;;;;;;;3.38;1.98;;;10.80;89.40;;;;;;5056669;28;20094;-70
2022/02/07 15:19:44;;;;;;;2.35;1.00;;;10.90;80.40;;;;;;5057354;28;20510;-70
2022/02/07 15:22:11;;;;;;;2.67;0.60;;;10.90;82.00;;;;;;5028330;28;20037;-69
2022/02/07 15:24:37;;;;;;;1.30;0.95;;;10.80;87.90;;;;;;5036169;28;20095;-69
2022/02/07 15:27:04;;;;;;;4.78;2.00;;;10.80;55.60;;;;;;5036540;28;20038;-69
2022/02/07 15:29:30;;;;;;;1.85;0.90;;;10.80;46.60;;;;;;5035680;28;20103;-69
2022/02/07 15:32:10;;;;;;;1.00;0.65;;;10.80;54.50;;;;;;5036144;28;20073;-69
2022/02/07 15:34:38;;;;;;;2.50;1.40;;;10.80;49.50;;;;;;5035286;28;20048;-69
2022/02/07 15:37:04;;;;;;;4.45;1.00;;;10.70;48.90;;;;;;5035705;28;20117;-69
2022/02/07 15:39:30;;;;;;;3.15;1.40;;;10.60;47.70;;;;;;5046526;28;20136;-70
2022/02/07 15:41:56;;;;;;;2.78;1.23;;;10.40;48.70;;;;;;5055378;28;20029;-70
2022/02/07 15:44:23;;;;;;;6.13;1.50;;;10.50;47.30;;;;;;5040228;28;20076;-69
2022/02/07 15:46:49;;;;;;;3.38;1.08;;;10.30;47.80;;;;;;5038875;28;20064;-70
2022/02/07 15:49:15;;;;;;;1.83;0.90;;;10.30;46.50;;;;;;5055625;28;20048;-70
2022/02/07 15:51:41;;;;;;;1.55;1.25;;;10.20;47.60;;;;;;5054473;28;20067;-70
2022/02/07 15:54:10;;;;;;;1.98;1.30;;;10.10;47.40;;;;;;5054681;28;20068;-70
2022/02/07 15:56:36;;;;;;;3.67;1.65;;;10.20;46.40;;;;;;5046582;28;20095;-69
2022/02/07 15:59:02;;;;;;;4.28;1.38;;;10.00;40.90;;;;;;5053197;28;20048;-69
2022/02/07 16:01:28;;;;;;;3.05;1.00;;;10.00;44.80;;;;;;5046113;28;20567;-69